createdAt,value
2018-03-02T00:01:51.926Z,100606
2018-03-02T00:04:19.816Z,100607
2018-03-02T00:06:47.745Z,100611
2018-03-02T00:09:15.653Z,100605
2018-03-02T00:11:43.587Z,100604
2018-03-02T00:14:11.505Z,100600
2018-03-02T00:16:39.417Z,100601
2018-03-02T00:19:07.692Z,100583
2018-03-02T00:21:35.629Z,100590
2018-03-02T00:24:03.532Z,100602
2018-03-02T00:26:31.437Z,100599
2018-03-02T00:28:59.329Z,100606
2018-03-02T00:31:27.220Z,100597
2018-03-02T00:33:55.132Z,100590
2018-03-02T00:36:23.500Z,100590
2018-03-02T00:38:51.443Z,100583
2018-03-02T00:41:19.358Z,100583
2018-03-02T00:43:47.282Z,100578
2018-03-02T00:46:15.194Z,100588
2018-03-02T00:48:43.090Z,100568
2018-03-02T00:51:11.009Z,100570
2018-03-02T00:53:38.947Z,100569
2018-03-02T00:56:06.860Z,100560
2018-03-02T00:58:34.805Z,100561
2018-03-02T01:01:02.712Z,100553
2018-03-02T01:03:37.517Z,100542
2018-03-02T01:06:05.423Z,100552
2018-03-02T01:08:33.329Z,100547
2018-03-02T01:11:01.238Z,100543
2018-03-02T01:13:29.134Z,100540
2018-03-02T01:15:57.059Z,100539
2018-03-02T01:18:24.949Z,100521
2018-03-02T01:20:53.085Z,100522
2018-03-02T01:23:20.994Z,100510
2018-03-02T01:25:48.900Z,100510
2018-03-02T01:28:16.812Z,100518
2018-03-02T01:30:44.708Z,100506
2018-03-02T01:33:12.616Z,100507
2018-03-02T01:35:40.520Z,100499
2018-03-02T01:38:08.439Z,100505
2018-03-02T01:40:36.365Z,100488
2018-03-02T01:43:04.301Z,100495
2018-03-02T01:45:32.216Z,100495
2018-03-02T01:48:00.146Z,100504
2018-03-02T01:50:28.424Z,100497
2018-03-02T01:52:56.343Z,100492
2018-03-02T01:55:24.245Z,100482
2018-03-02T01:57:52.148Z,100491
2018-03-02T02:00:20.034Z,100484
2018-03-02T02:02:47.950Z,100483
2018-03-02T02:05:15.854Z,100475
2018-03-02T02:07:44.076Z,100462
2018-03-02T02:10:11.992Z,100462
2018-03-02T02:12:39.899Z,100456
2018-03-02T02:15:07.792Z,100451
2018-03-02T02:17:35.691Z,100438
2018-03-02T02:20:03.593Z,100443
2018-03-02T02:22:31.514Z,100441
2018-03-02T02:24:59.411Z,100446
2018-03-02T02:27:27.537Z,100445
2018-03-02T02:29:55.453Z,100434
2018-03-02T02:32:23.367Z,100433
2018-03-02T02:34:51.289Z,100438
2018-03-02T02:37:19.213Z,100433
2018-03-02T02:39:47.107Z,100431
2018-03-02T02:42:15.021Z,100421
2018-03-02T02:44:42.925Z,100426
2018-03-02T02:47:10.835Z,100426
2018-03-02T02:49:38.759Z,100420
2018-03-02T02:52:06.949Z,100423
2018-03-02T02:54:34.856Z,100418
2018-03-02T02:57:02.769Z,100419
2018-03-02T02:59:30.669Z,100408
2018-03-02T03:01:58.570Z,100417
2018-03-02T03:04:26.484Z,100416
2018-03-02T03:06:54.389Z,100420
2018-03-02T03:09:22.301Z,100417
2018-03-02T03:11:50.205Z,100412
2018-03-02T03:14:18.101Z,100410
2018-03-02T03:16:45.997Z,100402
2018-03-02T03:19:13.901Z,100396
2018-03-02T03:21:42.028Z,100412
2018-03-02T03:24:09.937Z,100397
2018-03-02T03:26:37.869Z,100404
2018-03-02T03:29:05.788Z,100399
2018-03-02T03:31:33.689Z,100405
2018-03-02T03:34:01.612Z,100400
2018-03-02T03:36:29.557Z,100391
2018-03-02T03:38:57.456Z,100391
2018-03-02T03:41:25.380Z,100397
2018-03-02T03:43:53.348Z,100389
2018-03-02T03:46:21.264Z,100398
2018-03-02T03:48:49.218Z,100387
2018-03-02T03:51:17.126Z,100382
2018-03-02T03:53:45.036Z,99928
2018-03-02T03:56:12.937Z,100385
2018-03-02T03:58:40.838Z,100385
2018-03-02T04:01:08.758Z,100375
2018-03-02T04:03:36.657Z,100389
2018-03-02T04:06:04.569Z,100376
2018-03-02T04:08:38.590Z,100373
2018-03-02T04:11:06.488Z,100364
2018-03-02T04:13:34.401Z,100378
2018-03-02T04:16:02.318Z,100378
2018-03-02T04:18:30.239Z,100367
2018-03-02T04:20:58.326Z,100362
2018-03-02T04:23:26.228Z,100368
2018-03-02T04:25:54.144Z,100364
2018-03-02T04:28:22.098Z,100370
2018-03-02T04:30:50.016Z,100354
2018-03-02T04:33:17.916Z,100354
2018-03-02T04:35:45.842Z,100350
2018-03-02T04:38:13.736Z,100354
2018-03-02T04:40:41.656Z,100347
2018-03-02T04:43:09.556Z,100336
2018-03-02T04:45:37.499Z,100336
2018-03-02T04:48:05.387Z,100335
2018-03-02T04:50:33.308Z,100325
2018-03-02T04:53:01.224Z,100322
2018-03-02T04:55:29.128Z,100319
2018-03-02T04:57:57.432Z,100314
2018-03-02T05:00:25.344Z,100315
2018-03-02T05:02:53.249Z,100314
2018-03-02T05:05:21.160Z,100318
2018-03-02T05:07:49.066Z,100312
2018-03-02T05:10:17.068Z,100311
2018-03-02T05:12:44.996Z,100316
2018-03-02T05:15:12.924Z,100306
2018-03-02T05:17:40.821Z,100288
2018-03-02T05:20:08.731Z,100300
2018-03-02T05:22:36.647Z,100289
2018-03-02T05:25:11.488Z,100288
2018-03-02T05:27:39.510Z,100290
2018-03-02T05:30:07.468Z,100292
2018-03-02T05:32:35.376Z,100293
2018-03-02T05:35:03.288Z,100295
2018-03-02T05:37:31.210Z,100286
2018-03-02T05:39:59.124Z,100290
2018-03-02T05:42:27.085Z,100282
2018-03-02T05:44:54.995Z,100284
2018-03-02T05:47:22.908Z,100275
2018-03-02T05:49:50.811Z,100283
2018-03-02T05:52:18.713Z,100279
2018-03-02T05:54:46.611Z,100274
2018-03-02T05:57:14.848Z,100279
2018-03-02T06:02:39.453Z,100284
2018-03-02T06:05:07.376Z,100261
2018-03-02T06:07:35.325Z,100269
2018-03-02T06:10:03.297Z,100270
2018-03-02T06:12:31.188Z,100282
2018-03-02T06:14:59.094Z,100270
2018-03-02T06:17:27.001Z,100268
2018-03-02T06:19:54.892Z,100275
2018-03-02T06:22:22.785Z,100271
2018-03-02T06:24:50.708Z,100270
2018-03-02T06:27:18.693Z,100264
2018-03-02T06:29:46.587Z,100271
2018-03-02T06:32:14.503Z,100260
2018-03-02T06:34:42.417Z,100254
2018-03-02T06:37:10.384Z,100258
2018-03-02T06:39:38.281Z,100257
2018-03-02T06:42:06.207Z,100262
2018-03-02T06:44:34.112Z,100257
2018-03-02T06:47:02.043Z,100261
2018-03-02T06:49:29.942Z,100247
2018-03-02T06:51:57.856Z,100250
2018-03-02T06:54:25.751Z,100242
2018-03-02T06:56:54.153Z,100241
2018-03-02T06:59:22.060Z,100240
2018-03-02T07:01:49.985Z,100244
2018-03-02T07:04:17.959Z,100246
2018-03-02T07:06:45.843Z,100243
2018-03-02T07:09:13.745Z,100248
2018-03-02T07:11:41.653Z,100238
2018-03-02T07:14:09.588Z,100241
2018-03-02T07:16:37.495Z,100247
2018-03-02T07:19:05.425Z,100250
2018-03-02T07:21:33.332Z,100250
2018-03-02T07:24:01.296Z,100248
2018-03-02T07:26:29.272Z,100244
2018-03-02T07:28:57.196Z,100246
2018-03-02T07:31:25.128Z,100239
2018-03-02T07:33:53.060Z,100246
2018-03-02T07:36:20.989Z,100247
2018-03-02T07:38:48.899Z,100246
2018-03-02T07:41:16.869Z,100232
2018-03-02T07:43:44.772Z,100225
2018-03-02T07:46:12.689Z,100232
2018-03-02T07:48:40.620Z,100230
2018-03-02T07:51:08.793Z,100227
2018-03-02T07:53:36.692Z,100226
2018-03-02T07:56:04.592Z,100227
2018-03-02T07:58:32.489Z,100209
2018-03-02T08:01:00.396Z,100211
2018-03-02T08:03:28.297Z,100215
2018-03-02T08:05:56.212Z,100214
2018-03-02T08:08:24.121Z,100209
2018-03-02T08:10:52.039Z,100210
2018-03-02T08:13:19.952Z,100206
2018-03-02T08:15:47.864Z,100195
2018-03-02T08:18:15.785Z,100196
2018-03-02T08:20:43.685Z,100200
2018-03-02T08:23:11.594Z,100198
2018-03-02T08:25:39.505Z,100204
2018-03-02T08:28:07.400Z,100188
2018-03-02T08:30:35.337Z,100206
2018-03-02T08:33:03.262Z,100195
2018-03-02T08:35:31.501Z,100189
2018-03-02T08:37:59.388Z,100188
2018-03-02T08:40:27.352Z,100184
2018-03-02T08:42:55.310Z,100182
2018-03-02T08:45:23.168Z,100178
2018-03-02T08:47:51.081Z,100177
2018-03-02T08:50:18.988Z,100180
2018-03-02T08:52:46.916Z,100171
2018-03-02T08:55:14.954Z,100159
2018-03-02T08:57:42.864Z,100159
2018-03-02T09:00:10.763Z,100147
2018-03-02T09:02:38.688Z,100165
2018-03-02T09:05:06.580Z,100152
2018-03-02T09:07:34.484Z,100156
2018-03-02T09:10:02.402Z,100154
2018-03-02T09:12:30.300Z,100152
2018-03-02T09:14:58.192Z,100157
2018-03-02T09:17:26.105Z,100150
2018-03-02T09:19:54.021Z,100156
2018-03-02T09:22:21.925Z,100158
2018-03-02T09:24:50.260Z,100161
2018-03-02T09:27:18.162Z,100157
2018-03-02T09:29:46.083Z,100152
2018-03-02T09:32:13.979Z,100153
2018-03-02T09:34:41.884Z,100148
2018-03-02T09:37:09.796Z,100147
2018-03-02T09:39:37.705Z,100145
2018-03-02T09:42:05.603Z,100149
2018-03-02T09:44:33.501Z,100142
2018-03-02T09:47:01.404Z,100137
2018-03-02T09:49:29.308Z,100136
2018-03-02T09:51:57.209Z,100138
2018-03-02T09:54:25.280Z,100131
2018-03-02T09:56:53.180Z,100131
2018-03-02T09:59:21.126Z,100122
2018-03-02T10:01:49.003Z,100121
2018-03-02T10:04:16.921Z,100116
2018-03-02T10:06:44.813Z,100117
2018-03-02T10:09:12.705Z,100094
2018-03-02T10:11:40.617Z,100104
2018-03-02T10:14:08.524Z,100109
2018-03-02T10:16:36.464Z,100110
2018-03-02T10:19:11.240Z,100099
2018-03-02T10:21:39.714Z,100109
2018-03-02T10:24:07.605Z,100108
2018-03-02T10:26:35.513Z,100092
2018-03-02T10:29:03.429Z,100098
2018-03-02T10:31:31.345Z,100094
2018-03-02T10:33:59.236Z,100087
2018-03-02T10:36:27.172Z,100094
2018-03-02T10:38:55.083Z,100084
2018-03-02T10:41:22.982Z,100088
2018-03-02T10:43:50.918Z,100073
2018-03-02T10:46:19.194Z,100074
2018-03-02T10:48:48.040Z,100084
2018-03-02T10:51:16.202Z,100068
2018-03-02T10:53:44.349Z,100068
2018-03-02T10:56:12.294Z,100065
2018-03-02T10:58:40.262Z,100059
2018-03-02T11:01:11.212Z,100059
2018-03-02T11:03:39.135Z,100065
2018-03-02T11:06:07.131Z,100054
2018-03-02T11:08:35.048Z,100049
2018-03-02T11:11:02.965Z,100047
2018-03-02T11:13:30.885Z,100044
2018-03-02T11:15:58.815Z,100040
2018-03-02T11:18:26.728Z,100027
2018-03-02T11:20:54.699Z,100015
2018-03-02T11:23:22.613Z,100024
2018-03-02T11:25:50.799Z,100018
2018-03-02T11:28:18.708Z,100011
2018-03-02T11:30:46.621Z,100006
2018-03-02T11:33:14.541Z,100010
2018-03-02T11:35:42.498Z,99992
2018-03-02T11:38:10.413Z,99993
2018-03-02T11:40:38.332Z,100000
2018-03-02T11:43:06.241Z,99997
2018-03-02T11:45:34.164Z,99978
2018-03-02T11:48:02.116Z,99982
2018-03-02T11:50:30.025Z,99983
2018-03-02T11:52:58.254Z,99979
2018-03-02T11:55:26.148Z,99989
2018-03-02T11:57:54.063Z,99981
2018-03-02T12:00:22.015Z,99982
2018-03-02T12:02:49.928Z,99980
2018-03-02T12:05:17.832Z,99972
2018-03-02T12:07:45.737Z,99968
2018-03-02T12:10:13.644Z,99965
2018-03-02T12:12:41.539Z,99966
2018-03-02T12:15:09.445Z,99963
2018-03-02T12:17:37.368Z,99960
2018-03-02T12:20:05.514Z,99958
2018-03-02T12:22:33.444Z,99962
2018-03-02T12:25:01.363Z,99948
2018-03-02T12:27:29.261Z,99948
2018-03-02T12:29:57.163Z,99949
2018-03-02T12:32:25.065Z,99953
2018-03-02T12:34:52.968Z,99947
2018-03-02T12:37:20.936Z,99954
2018-03-02T12:39:48.842Z,99948
2018-03-02T12:42:16.760Z,99954
2018-03-02T12:44:44.718Z,99949
2018-03-02T12:47:12.601Z,99952
2018-03-02T12:49:40.497Z,99943
2018-03-02T12:52:08.412Z,99945
2018-03-02T12:54:36.351Z,99941
2018-03-02T12:57:04.387Z,99942
2018-03-02T12:59:32.281Z,99939
2018-03-02T13:02:00.198Z,99930
2018-03-02T13:04:28.103Z,99949
2018-03-02T13:06:56.012Z,99948
2018-03-02T13:09:23.929Z,99933
2018-03-02T13:11:51.836Z,99931
2018-03-02T13:14:19.729Z,99930
2018-03-02T13:16:47.629Z,99939
2018-03-02T13:19:15.525Z,99936
2018-03-02T13:21:43.428Z,99938
2018-03-02T13:24:11.337Z,99919
2018-03-02T13:26:51.508Z,99921
2018-03-02T13:29:19.424Z,99919
2018-03-02T13:31:47.484Z,99912
2018-03-02T13:34:27.705Z,99911
2018-03-02T13:36:55.633Z,99903
2018-03-02T13:39:36.037Z,99899
2018-03-02T13:42:04.828Z,99939
2018-03-02T13:44:32.740Z,99905
2018-03-02T13:47:00.759Z,99903
2018-03-02T13:49:41.098Z,99910
2018-03-02T13:52:09.237Z,99898
2018-03-02T13:54:37.203Z,99892
2018-03-02T13:57:17.419Z,99904
2018-03-02T13:59:45.309Z,99893
2018-03-02T14:02:25.401Z,99897
2018-03-02T14:04:59.573Z,99914
2018-03-02T14:07:27.517Z,99908
2018-03-02T14:09:55.438Z,99908
2018-03-02T14:12:23.345Z,99908
2018-03-02T14:14:51.248Z,99900
2018-03-02T14:17:19.155Z,99884
2018-03-02T14:19:47.127Z,99889
2018-03-02T14:22:15.100Z,99885
2018-03-02T14:24:43.028Z,99887
2018-03-02T14:27:10.928Z,99888
2018-03-02T14:29:38.921Z,99877
2018-03-02T14:32:07.080Z,99875
2018-03-02T14:34:35.013Z,99875
2018-03-02T14:37:02.909Z,99889
2018-03-02T14:39:30.940Z,99883
2018-03-02T14:41:59.096Z,99893
2018-03-02T14:44:27.028Z,99880
2018-03-02T14:46:54.936Z,99891
2018-03-02T14:49:22.959Z,99893
2018-03-02T14:51:51.193Z,99885
2018-03-02T14:54:19.277Z,99886
2018-03-02T14:56:47.189Z,99891
2018-03-02T14:59:15.104Z,99892
2018-03-02T15:01:42.994Z,99892
2018-03-02T15:04:10.892Z,99898
2018-03-02T15:06:38.776Z,99886
2018-03-02T15:09:06.751Z,99898
2018-03-02T15:11:34.661Z,99886
2018-03-02T15:14:02.559Z,99876
2018-03-02T15:16:30.520Z,99878
2018-03-02T15:18:58.462Z,99871
2018-03-02T15:21:26.442Z,99879
2018-03-02T15:23:54.756Z,99896
2018-03-02T15:26:22.678Z,99885
2018-03-02T15:28:50.583Z,99846
2018-03-02T15:31:18.480Z,99885
2018-03-02T15:33:46.381Z,99886
2018-03-02T15:36:14.289Z,99875
2018-03-02T15:38:42.228Z,99883
2018-03-02T15:41:10.174Z,99883
2018-03-02T15:43:38.090Z,99877
2018-03-02T15:46:06.008Z,99884
2018-03-02T15:48:33.925Z,99883
2018-03-02T15:51:01.826Z,99887
2018-03-02T15:53:29.717Z,99892
2018-03-02T15:55:57.625Z,99897
2018-03-02T15:58:25.538Z,99896
2018-03-02T16:00:53.636Z,99880
2018-03-02T16:03:21.532Z,99894
2018-03-02T16:05:56.589Z,99894
2018-03-02T16:08:24.514Z,99899
2018-03-02T16:10:52.429Z,99897
2018-03-02T16:13:20.312Z,99885
2018-03-02T16:15:48.213Z,99881
2018-03-02T16:18:16.108Z,99883
2018-03-02T16:20:44.018Z,99886
2018-03-02T16:23:11.924Z,99890
2018-03-02T16:25:39.830Z,99892
2018-03-02T16:28:07.764Z,99887
2018-03-02T16:30:35.671Z,99882
2018-03-02T16:33:03.568Z,99884
2018-03-02T16:35:31.748Z,99893
2018-03-02T16:37:59.684Z,99887
2018-03-02T16:40:27.590Z,99887
2018-03-02T16:42:55.495Z,99890
2018-03-02T16:45:23.405Z,99883
2018-03-02T16:47:51.355Z,99896
2018-03-02T16:50:19.306Z,99882
2018-03-02T16:52:47.276Z,99891
2018-03-02T16:55:15.177Z,99893
2018-03-02T16:57:43.072Z,99902
2018-03-02T17:00:10.980Z,99916
2018-03-02T17:02:38.905Z,99895
2018-03-02T17:05:06.815Z,99899
2018-03-02T17:07:34.725Z,99903
2018-03-02T17:10:02.708Z,99900
2018-03-02T17:12:30.620Z,99910
2018-03-02T17:14:58.535Z,99914
2018-03-02T17:17:26.438Z,99916
2018-03-02T17:19:54.342Z,99920
2018-03-02T17:22:22.290Z,99923
2018-03-02T17:24:50.189Z,99926
2018-03-02T17:27:18.096Z,99919
2018-03-02T17:29:46.016Z,99928
2018-03-02T17:32:13.924Z,99927
2018-03-02T17:34:41.836Z,99929
2018-03-02T17:37:09.741Z,99942
2018-03-02T17:39:37.662Z,99936
2018-03-02T17:42:05.567Z,99932
2018-03-02T17:44:33.481Z,99932
2018-03-02T17:47:01.449Z,99940
2018-03-02T17:49:29.821Z,99942
2018-03-02T17:52:04.757Z,99946
2018-03-02T17:54:32.700Z,99940
2018-03-02T17:57:00.621Z,99958
2018-03-02T17:59:28.512Z,99947
2018-03-02T18:01:56.400Z,99961
2018-03-02T18:04:24.302Z,99960
2018-03-02T18:06:52.658Z,99969
2018-03-02T18:09:20.567Z,99964
2018-03-02T18:11:48.469Z,99957
2018-03-02T18:14:16.372Z,99960
2018-03-02T18:16:44.284Z,99965
2018-03-02T18:19:12.205Z,99968
2018-03-02T18:21:40.138Z,99962
2018-03-02T18:24:08.060Z,99914
2018-03-02T18:26:36.508Z,99963
2018-03-02T18:29:04.428Z,99958
2018-03-02T18:31:32.328Z,99952
2018-03-02T18:34:00.232Z,99952
2018-03-02T18:36:28.134Z,99947
2018-03-02T18:38:56.028Z,99938
2018-03-02T18:41:23.925Z,99949
2018-03-02T18:43:51.839Z,99956
2018-03-02T18:46:19.730Z,99956
2018-03-02T18:48:47.655Z,99956
2018-03-02T18:51:15.548Z,99955
2018-03-02T18:53:43.452Z,99957
2018-03-02T18:56:11.363Z,99955
2018-03-02T18:58:39.257Z,99956
2018-03-02T19:01:07.149Z,99960
2018-03-02T19:03:35.078Z,99954
2018-03-02T19:06:02.993Z,99960
2018-03-02T19:08:30.910Z,99966
2018-03-02T19:10:58.809Z,99956
2018-03-02T19:13:26.717Z,99961
2018-03-02T19:15:54.633Z,99958
2018-03-02T19:18:22.604Z,99967
2018-03-02T19:20:50.569Z,99970
2018-03-02T19:23:18.470Z,99967
2018-03-02T19:25:46.380Z,99970
2018-03-02T19:28:14.290Z,99967
2018-03-02T19:30:42.240Z,99963
2018-03-02T19:33:10.169Z,99974
2018-03-02T19:35:38.077Z,99967
2018-03-02T19:38:05.990Z,99965
2018-03-02T19:40:33.903Z,99968
2018-03-02T19:43:01.810Z,99972
2018-03-02T19:45:29.727Z,99968
2018-03-02T19:47:57.621Z,99982
2018-03-02T19:50:25.532Z,99984
2018-03-02T19:52:53.821Z,99977
2018-03-02T19:55:21.728Z,99975
2018-03-02T19:57:49.636Z,99975
2018-03-02T20:00:17.551Z,99977
2018-03-02T20:02:45.450Z,99978
2018-03-02T20:05:13.366Z,99982
2018-03-02T20:07:41.285Z,99987
2018-03-02T20:10:09.215Z,99989
2018-03-02T20:12:37.116Z,99997
2018-03-02T20:15:05.015Z,99988
2018-03-02T20:17:32.913Z,99995
2018-03-02T20:20:00.821Z,100003
2018-03-02T20:22:29.140Z,99993
2018-03-02T20:24:57.050Z,99994
2018-03-02T20:27:24.949Z,99993
2018-03-02T20:29:52.864Z,100006
2018-03-02T20:32:20.764Z,99997
2018-03-02T20:34:48.676Z,99998
2018-03-02T20:37:16.581Z,99990
2018-03-02T20:39:44.541Z,99975
2018-03-02T20:42:12.496Z,99982
2018-03-02T20:44:47.248Z,99983
2018-03-02T20:47:15.208Z,99980
2018-03-02T20:49:43.085Z,99995
2018-03-02T20:52:10.992Z,99987
2018-03-02T20:54:38.938Z,99985
2018-03-02T20:57:06.872Z,99985
2018-03-02T20:59:34.824Z,99987
2018-03-02T21:02:02.736Z,99995
2018-03-02T21:04:30.856Z,99985
2018-03-02T21:06:58.772Z,99973
2018-03-02T21:09:26.684Z,99985
2018-03-02T21:11:54.591Z,99980
2018-03-02T21:14:22.505Z,99981
2018-03-02T21:16:50.413Z,99982
2018-03-02T21:19:18.353Z,99982
2018-03-02T21:21:46.253Z,99979
2018-03-02T21:24:14.166Z,99982
2018-03-02T21:26:42.081Z,99978
2018-03-02T21:29:09.976Z,99982
2018-03-02T21:31:37.896Z,99968
2018-03-02T21:34:06.065Z,99970
2018-03-02T21:36:33.972Z,99968
2018-03-02T21:39:01.920Z,99969
2018-03-02T21:41:29.833Z,99970
2018-03-02T21:43:57.741Z,99977
2018-03-02T21:46:25.664Z,99962
2018-03-02T21:48:53.560Z,99967
2018-03-02T21:51:21.454Z,99968
2018-03-02T21:53:49.379Z,99965
2018-03-02T21:56:17.277Z,99959
2018-03-02T21:58:45.196Z,99954
2018-03-02T22:01:13.092Z,99953
2018-03-02T22:03:41.009Z,99957
2018-03-02T22:06:08.932Z,99961
2018-03-02T22:08:36.828Z,99963
2018-03-02T22:11:04.736Z,99968
2018-03-02T22:13:32.632Z,99966
2018-03-02T22:16:00.540Z,99955
2018-03-02T22:18:28.463Z,99958
2018-03-02T22:20:56.361Z,99963
2018-03-02T22:23:24.285Z,99973
2018-03-02T22:25:52.207Z,99976
2018-03-02T22:28:20.112Z,99976
2018-03-02T22:30:48.012Z,99968
2018-03-02T22:33:15.920Z,99971
2018-03-02T22:35:43.838Z,99974
2018-03-02T22:38:11.732Z,99966
2018-03-02T22:40:39.643Z,99970
2018-03-02T22:43:07.541Z,99980
2018-03-02T22:45:35.438Z,99975
2018-03-02T22:48:03.344Z,99983
2018-03-02T22:50:31.254Z,99979
2018-03-02T22:52:59.204Z,99977
2018-03-02T22:55:27.097Z,99968
2018-03-02T22:57:54.992Z,99983
2018-03-02T23:00:22.908Z,99978
2018-03-02T23:02:50.808Z,99968
2018-03-02T23:05:18.725Z,99964
2018-03-02T23:07:46.629Z,99971
2018-03-02T23:10:14.534Z,99963
2018-03-02T23:12:42.458Z,99965
2018-03-02T23:15:10.360Z,99965
2018-03-02T23:17:38.278Z,99954
2018-03-02T23:20:06.180Z,99963
2018-03-02T23:22:34.112Z,99963
2018-03-02T23:25:02.040Z,99969
2018-03-02T23:27:29.932Z,99962
2018-03-02T23:29:57.892Z,99963
2018-03-02T23:32:25.761Z,99959
2018-03-02T23:34:53.673Z,99961
2018-03-02T23:37:21.564Z,99958
2018-03-02T23:39:49.464Z,99960
2018-03-02T23:42:17.368Z,99959
2018-03-02T23:44:45.268Z,99964
2018-03-02T23:47:13.204Z,99950
2018-03-02T23:49:41.119Z,99957
2018-03-02T23:52:09.020Z,99957
2018-03-02T23:54:36.917Z,100027
2018-03-02T23:57:04.891Z,99946
2018-03-02T23:59:32.800Z,99963
